sensor_id;sensor_type;location;lat;lon;timestamp;P1;durP1;ratioP1;P2;durP2;ratioP2
16189;SDS011;41754;51.498;7.540;2022-12-20T00:02:02;6.50;;;2.40;;
16189;SDS011;41754;51.498;7.540;2022-12-20T00:04:30;2.80;;;1.60;;
16189;SDS011;41754;51.498;7.540;2022-12-20T00:06:58;3.08;;;2.10;;
16189;SDS011;41754;51.498;7.540;2022-12-20T00:09:26;3.42;;;1.95;;
16189;SDS011;41754;51.498;7.540;2022-12-20T00:11:55;1.80;;;1.63;;
16189;SDS011;41754;51.498;7.540;2022-12-20T00:14:23;3.58;;;2.20;;
16189;SDS011;41754;51.498;7.540;2022-12-20T00:16:51;2.40;;;1.58;;
16189;SDS011;41754;51.498;7.540;2022-12-20T00:19:19;3.95;;;1.70;;
16189;SDS011;41754;51.498;7.540;2022-12-20T00:21:46;1.80;;;1.50;;
16189;SDS011;41754;51.498;7.540;2022-12-20T00:24:14;2.20;;;1.70;;
16189;SDS011;41754;51.498;7.540;2022-12-20T00:26:51;2.15;;;1.70;;
16189;SDS011;41754;51.498;7.540;2022-12-20T00:29:20;3.55;;;1.75;;
16189;SDS011;41754;51.498;7.540;2022-12-20T00:31:47;1.80;;;1.40;;
16189;SDS011;41754;51.498;7.540;2022-12-20T00:34:15;6.80;;;1.90;;
16189;SDS011;41754;51.498;7.540;2022-12-20T00:36:43;2.78;;;1.70;;
16189;SDS011;41754;51.498;7.540;2022-12-20T00:39:11;2.28;;;1.73;;
16189;SDS011;41754;51.498;7.540;2022-12-20T00:41:39;2.17;;;1.55;;
16189;SDS011;41754;51.498;7.540;2022-12-20T00:44:07;3.45;;;1.67;;
16189;SDS011;41754;51.498;7.540;2022-12-20T00:46:36;2.78;;;1.75;;
16189;SDS011;41754;51.498;7.540;2022-12-20T00:49:04;3.22;;;1.55;;
16189;SDS011;41754;51.498;7.540;2022-12-20T00:51:32;2.95;;;1.52;;
16189;SDS011;41754;51.498;7.540;2022-12-20T00:54:00;3.70;;;1.50;;
16189;SDS011;41754;51.498;7.540;2022-12-20T00:56:28;1.55;;;1.40;;
16189;SDS011;41754;51.498;7.540;2022-12-20T00:58:56;1.73;;;1.40;;
16189;SDS011;41754;51.498;7.540;2022-12-20T01:01:25;3.30;;;1.40;;
16189;SDS011;41754;51.498;7.540;2022-12-20T01:03:57;1.50;;;1.40;;
16189;SDS011;41754;51.498;7.540;2022-12-20T01:06:26;2.28;;;1.60;;
16189;SDS011;41754;51.498;7.540;2022-12-20T01:08:54;4.00;;;1.50;;
16189;SDS011;41754;51.498;7.540;2022-12-20T01:11:23;1.75;;;1.23;;
16189;SDS011;41754;51.498;7.540;2022-12-20T01:13:53;1.83;;;1.50;;
16189;SDS011;41754;51.498;7.540;2022-12-20T01:16:23;5.68;;;1.42;;
16189;SDS011;41754;51.498;7.540;2022-12-20T01:18:52;1.98;;;1.25;;
16189;SDS011;41754;51.498;7.540;2022-12-20T01:21:22;3.00;;;1.92;;
16189;SDS011;41754;51.498;7.540;2022-12-20T01:23:51;2.25;;;1.50;;
16189;SDS011;41754;51.498;7.540;2022-12-20T01:26:20;1.90;;;1.48;;
16189;SDS011;41754;51.498;7.540;2022-12-20T01:28:51;1.58;;;1.48;;
16189;SDS011;41754;51.498;7.540;2022-12-20T01:31:19;2.45;;;1.67;;
16189;SDS011;41754;51.498;7.540;2022-12-20T01:33:47;1.60;;;1.27;;
16189;SDS011;41754;51.498;7.540;2022-12-20T01:36:17;1.35;;;1.17;;
16189;SDS011;41754;51.498;7.540;2022-12-20T01:38:47;3.13;;;1.50;;
16189;SDS011;41754;51.498;7.540;2022-12-20T01:41:15;2.47;;;1.35;;
16189;SDS011;41754;51.498;7.540;2022-12-20T01:43:46;3.92;;;1.73;;
16189;SDS011;41754;51.498;7.540;2022-12-20T01:46:16;2.05;;;1.50;;
16189;SDS011;41754;51.498;7.540;2022-12-20T01:48:47;1.98;;;1.65;;
16189;SDS011;41754;51.498;7.540;2022-12-20T01:51:17;1.50;;;1.40;;
16189;SDS011;41754;51.498;7.540;2022-12-20T01:53:47;4.63;;;1.67;;
16189;SDS011;41754;51.498;7.540;2022-12-20T01:56:15;2.05;;;1.13;;
16189;SDS011;41754;51.498;7.540;2022-12-20T01:58:43;4.55;;;1.48;;
16189;SDS011;41754;51.498;7.540;2022-12-20T02:01:12;3.28;;;1.80;;
16189;SDS011;41754;51.498;7.540;2022-12-20T02:03:40;5.60;;;1.55;;
16189;SDS011;41754;51.498;7.540;2022-12-20T02:06:13;1.95;;;1.75;;
16189;SDS011;41754;51.498;7.540;2022-12-20T02:08:43;4.40;;;1.58;;
16189;SDS011;41754;51.498;7.540;2022-12-20T02:11:17;2.65;;;1.67;;
16189;SDS011;41754;51.498;7.540;2022-12-20T02:13:57;3.90;;;1.75;;
16189;SDS011;41754;51.498;7.540;2022-12-20T02:16:33;3.65;;;2.00;;
16189;SDS011;41754;51.498;7.540;2022-12-20T02:19:15;3.53;;;1.80;;
16189;SDS011;41754;51.498;7.540;2022-12-20T02:21:52;2.35;;;1.73;;
16189;SDS011;41754;51.498;7.540;2022-12-20T02:24:28;3.60;;;1.88;;
16189;SDS011;41754;51.498;7.540;2022-12-20T02:27:19;2.20;;;1.92;;
16189;SDS011;41754;51.498;7.540;2022-12-20T02:30:02;3.47;;;1.70;;
16189;SDS011;41754;51.498;7.540;2022-12-20T02:32:33;1.90;;;1.70;;
16189;SDS011;41754;51.498;7.540;2022-12-20T02:35:04;4.22;;;2.10;;
16189;SDS011;41754;51.498;7.540;2022-12-20T02:37:34;3.30;;;2.03;;
16189;SDS011;41754;51.498;7.540;2022-12-20T02:40:02;2.25;;;1.42;;
16189;SDS011;41754;51.498;7.540;2022-12-20T02:42:31;4.18;;;1.90;;
16189;SDS011;41754;51.498;7.540;2022-12-20T02:45:03;2.22;;;1.90;;
16189;SDS011;41754;51.498;7.540;2022-12-20T02:47:44;2.88;;;1.90;;
16189;SDS011;41754;51.498;7.540;2022-12-20T02:50:16;3.70;;;1.92;;
16189;SDS011;41754;51.498;7.540;2022-12-20T02:52:47;4.13;;;2.20;;
16189;SDS011;41754;51.498;7.540;2022-12-20T02:55:16;5.65;;;2.05;;
16189;SDS011;41754;51.498;7.540;2022-12-20T02:57:47;3.58;;;1.90;;
16189;SDS011;41754;51.498;7.540;2022-12-20T03:00:26;3.40;;;2.42;;
16189;SDS011;41754;51.498;7.540;2022-12-20T03:02:59;1.83;;;1.70;;
16189;SDS011;41754;51.498;7.540;2022-12-20T03:05:45;4.45;;;2.30;;
16189;SDS011;41754;51.498;7.540;2022-12-20T03:08:17;3.53;;;2.30;;
16189;SDS011;41754;51.498;7.540;2022-12-20T03:10:47;5.53;;;2.53;;
16189;SDS011;41754;51.498;7.540;2022-12-20T03:13:15;2.72;;;1.88;;
16189;SDS011;41754;51.498;7.540;2022-12-20T03:16:01;2.20;;;2.00;;
16189;SDS011;41754;51.498;7.540;2022-12-20T03:18:29;6.18;;;3.28;;
16189;SDS011;41754;51.498;7.540;2022-12-20T03:20:57;3.05;;;1.75;;
16189;SDS011;41754;51.498;7.540;2022-12-20T03:23:25;3.38;;;2.20;;
16189;SDS011;41754;51.498;7.540;2022-12-20T03:25:53;3.63;;;2.25;;
16189;SDS011;41754;51.498;7.540;2022-12-20T03:28:29;2.67;;;2.13;;
16189;SDS011;41754;51.498;7.540;2022-12-20T03:30:56;2.88;;;2.25;;
16189;SDS011;41754;51.498;7.540;2022-12-20T03:33:26;3.63;;;2.40;;
16189;SDS011;41754;51.498;7.540;2022-12-20T03:35:57;3.63;;;2.38;;
16189;SDS011;41754;51.498;7.540;2022-12-20T03:38:25;2.75;;;2.05;;
16189;SDS011;41754;51.498;7.540;2022-12-20T03:40:52;3.63;;;2.10;;
16189;SDS011;41754;51.498;7.540;2022-12-20T03:43:21;3.00;;;1.98;;
16189;SDS011;41754;51.498;7.540;2022-12-20T03:45:49;3.40;;;2.10;;
16189;SDS011;41754;51.498;7.540;2022-12-20T03:48:17;5.22;;;2.10;;
16189;SDS011;41754;51.498;7.540;2022-12-20T03:50:47;3.38;;;2.20;;
16189;SDS011;41754;51.498;7.540;2022-12-20T03:53:15;3.50;;;2.28;;
16189;SDS011;41754;51.498;7.540;2022-12-20T03:55:43;3.60;;;2.22;;
16189;SDS011;41754;51.498;7.540;2022-12-20T03:58:12;3.38;;;2.42;;
16189;SDS011;41754;51.498;7.540;2022-12-20T04:00:40;3.88;;;2.13;;
16189;SDS011;41754;51.498;7.540;2022-12-20T04:03:30;2.35;;;1.90;;
16189;SDS011;41754;51.498;7.540;2022-12-20T04:05:59;3.03;;;2.22;;
16189;SDS011;41754;51.498;7.540;2022-12-20T04:08:27;4.10;;;2.60;;
16189;SDS011;41754;51.498;7.540;2022-12-20T04:10:55;3.83;;;2.40;;
16189;SDS011;41754;51.498;7.540;2022-12-20T04:13:46;4.78;;;2.60;;
16189;SDS011;41754;51.498;7.540;2022-12-20T04:16:17;3.58;;;2.15;;
16189;SDS011;41754;51.498;7.540;2022-12-20T04:18:47;3.65;;;2.60;;
16189;SDS011;41754;51.498;7.540;2022-12-20T04:21:20;3.25;;;2.10;;
16189;SDS011;41754;51.498;7.540;2022-12-20T04:23:50;2.60;;;2.08;;
16189;SDS011;41754;51.498;7.540;2022-12-20T04:26:18;4.10;;;2.35;;
16189;SDS011;41754;51.498;7.540;2022-12-20T04:28:46;3.80;;;2.55;;
16189;SDS011;41754;51.498;7.540;2022-12-20T04:31:14;3.60;;;2.33;;
16189;SDS011;41754;51.498;7.540;2022-12-20T04:33:49;3.80;;;2.53;;
16189;SDS011;41754;51.498;7.540;2022-12-20T04:36:20;3.45;;;2.28;;
16189;SDS011;41754;51.498;7.540;2022-12-20T04:38:50;3.07;;;2.13;;
16189;SDS011;41754;51.498;7.540;2022-12-20T04:41:18;3.33;;;2.03;;
16189;SDS011;41754;51.498;7.540;2022-12-20T04:43:59;5.13;;;2.20;;
16189;SDS011;41754;51.498;7.540;2022-12-20T04:46:33;4.25;;;2.33;;
16189;SDS011;41754;51.498;7.540;2022-12-20T04:49:03;2.88;;;2.00;;
16189;SDS011;41754;51.498;7.540;2022-12-20T04:51:34;3.63;;;2.47;;
16189;SDS011;41754;51.498;7.540;2022-12-20T04:54:03;3.15;;;2.35;;
16189;SDS011;41754;51.498;7.540;2022-12-20T04:56:39;4.05;;;2.20;;
16189;SDS011;41754;51.498;7.540;2022-12-20T04:59:09;4.38;;;2.35;;
16189;SDS011;41754;51.498;7.540;2022-12-20T05:01:40;8.32;;;3.03;;
16189;SDS011;41754;51.498;7.540;2022-12-20T05:04:09;5.25;;;2.50;;
16189;SDS011;41754;51.498;7.540;2022-12-20T05:06:38;6.60;;;2.40;;
16189;SDS011;41754;51.498;7.540;2022-12-20T05:09:06;3.10;;;2.50;;
16189;SDS011;41754;51.498;7.540;2022-12-20T05:11:34;3.23;;;2.40;;
16189;SDS011;41754;51.498;7.540;2022-12-20T05:14:06;4.20;;;2.30;;
16189;SDS011;41754;51.498;7.540;2022-12-20T05:16:34;3.55;;;2.30;;
16189;SDS011;41754;51.498;7.540;2022-12-20T05:19:04;5.40;;;3.03;;
16189;SDS011;41754;51.498;7.540;2022-12-20T05:21:38;3.27;;;2.93;;
16189;SDS011;41754;51.498;7.540;2022-12-20T05:24:24;3.53;;;2.40;;
16189;SDS011;41754;51.498;7.540;2022-12-20T05:27:35;5.63;;;3.37;;
16189;SDS011;41754;51.498;7.540;2022-12-20T05:30:04;4.10;;;2.90;;
16189;SDS011;41754;51.498;7.540;2022-12-20T05:32:32;4.10;;;2.90;;
16189;SDS011;41754;51.498;7.540;2022-12-20T05:35:00;3.67;;;3.03;;
16189;SDS011;41754;51.498;7.540;2022-12-20T05:37:31;3.60;;;2.70;;
16189;SDS011;41754;51.498;7.540;2022-12-20T05:40:06;3.70;;;2.73;;
16189;SDS011;41754;51.498;7.540;2022-12-20T05:42:36;6.13;;;3.27;;
16189;SDS011;41754;51.498;7.540;2022-12-20T05:45:04;5.00;;;3.40;;
16189;SDS011;41754;51.498;7.540;2022-12-20T05:47:42;6.83;;;3.20;;
16189;SDS011;41754;51.498;7.540;2022-12-20T05:50:11;4.27;;;2.57;;
16189;SDS011;41754;51.498;7.540;2022-12-20T05:53:04;4.20;;;2.93;;
16189;SDS011;41754;51.498;7.540;2022-12-20T05:55:42;4.37;;;2.77;;
16189;SDS011;41754;51.498;7.540;2022-12-20T05:58:11;4.90;;;2.63;;
16189;SDS011;41754;51.498;7.540;2022-12-20T06:00:49;3.90;;;2.70;;
16189;SDS011;41754;51.498;7.540;2022-12-20T06:03:17;4.83;;;2.93;;
16189;SDS011;41754;51.498;7.540;2022-12-20T06:05:45;6.90;;;2.97;;
16189;SDS011;41754;51.498;7.540;2022-12-20T06:08:21;6.83;;;3.40;;
16189;SDS011;41754;51.498;7.540;2022-12-20T06:10:51;5.60;;;3.40;;
16189;SDS011;41754;51.498;7.540;2022-12-20T06:13:20;4.40;;;2.93;;
16189;SDS011;41754;51.498;7.540;2022-12-20T06:15:50;3.20;;;2.90;;
16189;SDS011;41754;51.498;7.540;2022-12-20T06:18:19;5.03;;;3.30;;
16189;SDS011;41754;51.498;7.540;2022-12-20T06:20:50;4.63;;;2.90;;
16189;SDS011;41754;51.498;7.540;2022-12-20T06:23:22;4.70;;;2.90;;
16189;SDS011;41754;51.498;7.540;2022-12-20T06:26:00;3.57;;;2.97;;
16189;SDS011;41754;51.498;7.540;2022-12-20T06:28:32;3.70;;;2.80;;
16189;SDS011;41754;51.498;7.540;2022-12-20T06:31:01;5.60;;;3.60;;
16189;SDS011;41754;51.498;7.540;2022-12-20T06:33:49;3.43;;;2.53;;
16189;SDS011;41754;51.498;7.540;2022-12-20T06:36:19;4.30;;;2.73;;
16189;SDS011;41754;51.498;7.540;2022-12-20T06:38:49;3.97;;;2.87;;
16189;SDS011;41754;51.498;7.540;2022-12-20T06:41:16;3.10;;;2.60;;
16189;SDS011;41754;51.498;7.540;2022-12-20T06:43:45;3.53;;;2.80;;
16189;SDS011;41754;51.498;7.540;2022-12-20T06:46:12;3.47;;;2.50;;
16189;SDS011;41754;51.498;7.540;2022-12-20T06:48:42;4.83;;;3.20;;
16189;SDS011;41754;51.498;7.540;2022-12-20T06:51:11;3.53;;;2.70;;
16189;SDS011;41754;51.498;7.540;2022-12-20T06:53:39;4.40;;;2.40;;
16189;SDS011;41754;51.498;7.540;2022-12-20T06:56:08;5.47;;;2.70;;
16189;SDS011;41754;51.498;7.540;2022-12-20T06:58:36;3.75;;;2.08;;
16189;SDS011;41754;51.498;7.540;2022-12-20T07:01:04;5.70;;;2.45;;
16189;SDS011;41754;51.498;7.540;2022-12-20T07:03:32;4.53;;;2.20;;
16189;SDS011;41754;51.498;7.540;2022-12-20T07:05:59;2.97;;;2.43;;
16189;SDS011;41754;51.498;7.540;2022-12-20T07:08:27;3.60;;;2.13;;
16189;SDS011;41754;51.498;7.540;2022-12-20T07:10:55;3.87;;;2.10;;
16189;SDS011;41754;51.498;7.540;2022-12-20T07:13:24;7.07;;;2.70;;
16189;SDS011;41754;51.498;7.540;2022-12-20T07:15:56;3.60;;;1.97;;
16189;SDS011;41754;51.498;7.540;2022-12-20T07:18:24;5.30;;;2.50;;
16189;SDS011;41754;51.498;7.540;2022-12-20T07:20:52;3.47;;;2.42;;
16189;SDS011;41754;51.498;7.540;2022-12-20T07:23:20;3.27;;;1.93;;
16189;SDS011;41754;51.498;7.540;2022-12-20T07:25:51;4.83;;;2.23;;
16189;SDS011;41754;51.498;7.540;2022-12-20T07:28:20;3.42;;;2.65;;
16189;SDS011;41754;51.498;7.540;2022-12-20T07:30:52;4.53;;;2.50;;
16189;SDS011;41754;51.498;7.540;2022-12-20T07:33:20;3.87;;;2.23;;
16189;SDS011;41754;51.498;7.540;2022-12-20T07:35:48;3.33;;;2.28;;
16189;SDS011;41754;51.498;7.540;2022-12-20T07:38:20;2.13;;;1.90;;
16189;SDS011;41754;51.498;7.540;2022-12-20T07:40:48;3.88;;;2.10;;
16189;SDS011;41754;51.498;7.540;2022-12-20T07:43:15;3.90;;;2.45;;
16189;SDS011;41754;51.498;7.540;2022-12-20T07:45:43;2.65;;;2.13;;
16189;SDS011;41754;51.498;7.540;2022-12-20T07:48:14;3.58;;;2.08;;
16189;SDS011;41754;51.498;7.540;2022-12-20T07:50:47;1.88;;;1.63;;
16189;SDS011;41754;51.498;7.540;2022-12-20T07:53:15;4.03;;;2.35;;
16189;SDS011;41754;51.498;7.540;2022-12-20T07:55:43;4.73;;;1.97;;
16189;SDS011;41754;51.498;7.540;2022-12-20T07:58:11;4.75;;;1.83;;
16189;SDS011;41754;51.498;7.540;2022-12-20T08:00:39;3.55;;;2.55;;
16189;SDS011;41754;51.498;7.540;2022-12-20T08:03:09;2.45;;;1.60;;
16189;SDS011;41754;51.498;7.540;2022-12-20T08:05:43;2.83;;;2.05;;
16189;SDS011;41754;51.498;7.540;2022-12-20T08:08:13;3.47;;;1.70;;
16189;SDS011;41754;51.498;7.540;2022-12-20T08:10:41;3.38;;;1.80;;
16189;SDS011;41754;51.498;7.540;2022-12-20T08:13:10;3.00;;;1.67;;
16189;SDS011;41754;51.498;7.540;2022-12-20T08:15:37;4.97;;;2.13;;
16189;SDS011;41754;51.498;7.540;2022-12-20T08:18:05;3.17;;;2.05;;
16189;SDS011;41754;51.498;7.540;2022-12-20T08:20:33;2.25;;;2.05;;
16189;SDS011;41754;51.498;7.540;2022-12-20T08:23:02;2.90;;;1.83;;
16189;SDS011;41754;51.498;7.540;2022-12-20T08:25:30;2.85;;;1.80;;
16189;SDS011;41754;51.498;7.540;2022-12-20T08:28:07;2.30;;;1.80;;
16189;SDS011;41754;51.498;7.540;2022-12-20T08:30:35;3.85;;;2.25;;
16189;SDS011;41754;51.498;7.540;2022-12-20T08:33:03;2.03;;;1.83;;
16189;SDS011;41754;51.498;7.540;2022-12-20T08:35:31;2.95;;;1.95;;
16189;SDS011;41754;51.498;7.540;2022-12-20T08:37:59;3.28;;;2.10;;
16189;SDS011;41754;51.498;7.540;2022-12-20T08:40:28;3.15;;;1.95;;
16189;SDS011;41754;51.498;7.540;2022-12-20T08:42:57;4.13;;;2.03;;
16189;SDS011;41754;51.498;7.540;2022-12-20T08:45:31;2.60;;;1.88;;
16189;SDS011;41754;51.498;7.540;2022-12-20T08:47:59;5.97;;;2.08;;
16189;SDS011;41754;51.498;7.540;2022-12-20T08:50:27;3.63;;;1.85;;
16189;SDS011;41754;51.498;7.540;2022-12-20T08:52:55;3.50;;;1.77;;
16189;SDS011;41754;51.498;7.540;2022-12-20T08:55:22;2.63;;;1.77;;
16189;SDS011;41754;51.498;7.540;2022-12-20T08:57:56;3.20;;;1.98;;
16189;SDS011;41754;51.498;7.540;2022-12-20T09:00:24;4.60;;;1.77;;
16189;SDS011;41754;51.498;7.540;2022-12-20T09:02:52;3.83;;;1.50;;
16189;SDS011;41754;51.498;7.540;2022-12-20T09:05:20;2.58;;;1.73;;
16189;SDS011;41754;51.498;7.540;2022-12-20T09:07:48;2.72;;;1.55;;
16189;SDS011;41754;51.498;7.540;2022-12-20T09:10:16;2.28;;;1.48;;
16189;SDS011;41754;51.498;7.540;2022-12-20T09:12:43;3.08;;;1.52;;
16189;SDS011;41754;51.498;7.540;2022-12-20T09:15:12;2.88;;;1.60;;
16189;SDS011;41754;51.498;7.540;2022-12-20T09:17:40;2.88;;;1.80;;
16189;SDS011;41754;51.498;7.540;2022-12-20T09:20:08;3.00;;;1.73;;
16189;SDS011;41754;51.498;7.540;2022-12-20T09:22:36;1.90;;;1.60;;
16189;SDS011;41754;51.498;7.540;2022-12-20T09:25:05;2.97;;;1.90;;
16189;SDS011;41754;51.498;7.540;2022-12-20T09:27:34;3.15;;;1.75;;
16189;SDS011;41754;51.498;7.540;2022-12-20T09:30:01;3.10;;;1.83;;
16189;SDS011;41754;51.498;7.540;2022-12-20T09:32:31;1.80;;;1.50;;
16189;SDS011;41754;51.498;7.540;2022-12-20T09:34:59;3.50;;;2.03;;
16189;SDS011;41754;51.498;7.540;2022-12-20T09:37:28;3.90;;;1.67;;
16189;SDS011;41754;51.498;7.540;2022-12-20T09:39:56;3.72;;;1.70;;
16189;SDS011;41754;51.498;7.540;2022-12-20T09:42:24;2.40;;;1.67;;
16189;SDS011;41754;51.498;7.540;2022-12-20T09:44:53;3.97;;;1.85;;
16189;SDS011;41754;51.498;7.540;2022-12-20T09:47:27;3.63;;;1.70;;
16189;SDS011;41754;51.498;7.540;2022-12-20T09:49:56;2.97;;;1.75;;
16189;SDS011;41754;51.498;7.540;2022-12-20T09:52:28;3.08;;;1.73;;
16189;SDS011;41754;51.498;7.540;2022-12-20T09:55:05;4.30;;;1.60;;
16189;SDS011;41754;51.498;7.540;2022-12-20T09:57:42;3.40;;;1.70;;
16189;SDS011;41754;51.498;7.540;2022-12-20T10:00:19;3.25;;;1.80;;
16189;SDS011;41754;51.498;7.540;2022-12-20T10:02:47;2.10;;;1.90;;
16189;SDS011;41754;51.498;7.540;2022-12-20T10:05:37;3.35;;;1.83;;
16189;SDS011;41754;51.498;7.540;2022-12-20T10:08:11;2.40;;;1.67;;
16189;SDS011;41754;51.498;7.540;2022-12-20T10:10:49;2.30;;;1.80;;
16189;SDS011;41754;51.498;7.540;2022-12-20T10:13:34;3.78;;;1.63;;
16189;SDS011;41754;51.498;7.540;2022-12-20T10:16:18;4.45;;;1.60;;
16189;SDS011;41754;51.498;7.540;2022-12-20T10:18:57;1.38;;;1.27;;
16189;SDS011;41754;51.498;7.540;2022-12-20T10:21:34;2.50;;;1.52;;
16189;SDS011;41754;51.498;7.540;2022-12-20T10:24:09;2.70;;;1.30;;
16189;SDS011;41754;51.498;7.540;2022-12-20T10:26:40;2.97;;;1.30;;
16189;SDS011;41754;51.498;7.540;2022-12-20T10:29:08;3.53;;;1.48;;
16189;SDS011;41754;51.498;7.540;2022-12-20T10:31:36;2.60;;;1.52;;
16189;SDS011;41754;51.498;7.540;2022-12-20T10:34:05;2.03;;;1.40;;
16189;SDS011;41754;51.498;7.540;2022-12-20T10:36:34;2.58;;;1.60;;
16189;SDS011;41754;51.498;7.540;2022-12-20T10:39:03;1.77;;;1.60;;
16189;SDS011;41754;51.498;7.540;2022-12-20T10:41:32;4.47;;;1.60;;
16189;SDS011;41754;51.498;7.540;2022-12-20T10:44:01;4.18;;;1.65;;
16189;SDS011;41754;51.498;7.540;2022-12-20T10:46:34;2.00;;;1.50;;
16189;SDS011;41754;51.498;7.540;2022-12-20T10:51:59;2.55;;;1.45;;
16189;SDS011;41754;51.498;7.540;2022-12-20T10:54:29;4.03;;;1.60;;
16189;SDS011;41754;51.498;7.540;2022-12-20T10:56:59;2.83;;;1.60;;
16189;SDS011;41754;51.498;7.540;2022-12-20T10:59:29;4.43;;;1.50;;
16189;SDS011;41754;51.498;7.540;2022-12-20T11:01:59;3.17;;;1.55;;
16189;SDS011;41754;51.498;7.540;2022-12-20T11:04:28;1.73;;;1.33;;
16189;SDS011;41754;51.498;7.540;2022-12-20T11:06:59;3.50;;;1.40;;
16189;SDS011;41754;51.498;7.540;2022-12-20T11:09:28;2.55;;;1.33;;
16189;SDS011;41754;51.498;7.540;2022-12-20T11:12:01;1.48;;;1.38;;
16189;SDS011;41754;51.498;7.540;2022-12-20T11:14:31;2.63;;;1.40;;
16189;SDS011;41754;51.498;7.540;2022-12-20T11:17:06;3.75;;;1.17;;
16189;SDS011;41754;51.498;7.540;2022-12-20T11:19:51;2.33;;;1.40;;
16189;SDS011;41754;51.498;7.540;2022-12-20T11:22:28;1.85;;;1.38;;
16189;SDS011;41754;51.498;7.540;2022-12-20T11:25:05;1.55;;;1.35;;
16189;SDS011;41754;51.498;7.540;2022-12-20T11:27:40;3.08;;;1.42;;
16189;SDS011;41754;51.498;7.540;2022-12-20T11:30:15;2.38;;;1.55;;
16189;SDS011;41754;51.498;7.540;2022-12-20T11:35:34;2.40;;;1.50;;
16189;SDS011;41754;51.498;7.540;2022-12-20T11:38:11;2.53;;;1.30;;
16189;SDS011;41754;51.498;7.540;2022-12-20T11:40:46;1.35;;;1.15;;
16189;SDS011;41754;51.498;7.540;2022-12-20T11:43:22;2.78;;;1.40;;
16189;SDS011;41754;51.498;7.540;2022-12-20T11:45:58;1.77;;;1.52;;
16189;SDS011;41754;51.498;7.540;2022-12-20T11:51:28;1.38;;;1.25;;
16189;SDS011;41754;51.498;7.540;2022-12-20T11:54:03;2.47;;;1.40;;
16189;SDS011;41754;51.498;7.540;2022-12-20T11:56:37;3.90;;;1.30;;
16189;SDS011;41754;51.498;7.540;2022-12-20T11:59:11;2.38;;;1.15;;
16189;SDS011;41754;51.498;7.540;2022-12-20T12:01:45;3.83;;;1.60;;
16189;SDS011;41754;51.498;7.540;2022-12-20T12:04:17;2.63;;;1.30;;
16189;SDS011;41754;51.498;7.540;2022-12-20T12:06:50;2.60;;;1.27;;
16189;SDS011;41754;51.498;7.540;2022-12-20T12:09:22;2.65;;;1.40;;
16189;SDS011;41754;51.498;7.540;2022-12-20T12:11:55;3.45;;;1.60;;
16189;SDS011;41754;51.498;7.540;2022-12-20T12:14:45;1.65;;;1.20;;
16189;SDS011;41754;51.498;7.540;2022-12-20T12:17:17;3.72;;;1.33;;
16189;SDS011;41754;51.498;7.540;2022-12-20T12:19:51;1.42;;;0.88;;
16189;SDS011;41754;51.498;7.540;2022-12-20T12:22:21;2.22;;;1.40;;
16189;SDS011;41754;51.498;7.540;2022-12-20T12:24:55;2.22;;;1.50;;
16189;SDS011;41754;51.498;7.540;2022-12-20T12:27:25;4.40;;;1.40;;
16189;SDS011;41754;51.498;7.540;2022-12-20T12:29:54;1.10;;;1.00;;
16189;SDS011;41754;51.498;7.540;2022-12-20T12:32:25;2.42;;;1.17;;
16189;SDS011;41754;51.498;7.540;2022-12-20T12:35:02;1.77;;;1.23;;
16189;SDS011;41754;51.498;7.540;2022-12-20T12:37:53;1.60;;;1.13;;
16189;SDS011;41754;51.498;7.540;2022-12-20T12:40:41;3.95;;;1.42;;
16189;SDS011;41754;51.498;7.540;2022-12-20T12:43:26;5.90;;;1.52;;
16189;SDS011;41754;51.498;7.540;2022-12-20T12:46:08;2.15;;;1.45;;
16189;SDS011;41754;51.498;7.540;2022-12-20T12:48:40;1.92;;;1.40;;
16189;SDS011;41754;51.498;7.540;2022-12-20T12:51:09;3.88;;;1.40;;
16189;SDS011;41754;51.498;7.540;2022-12-20T12:53:40;1.92;;;1.30;;
16189;SDS011;41754;51.498;7.540;2022-12-20T12:56:30;1.42;;;1.33;;
16189;SDS011;41754;51.498;7.540;2022-12-20T12:59:23;3.50;;;1.45;;
16189;SDS011;41754;51.498;7.540;2022-12-20T13:04:59;2.25;;;1.13;;
16189;SDS011;41754;51.498;7.540;2022-12-20T13:07:51;3.95;;;1.50;;
16189;SDS011;41754;51.498;7.540;2022-12-20T13:13:25;2.67;;;1.60;;
16189;SDS011;41754;51.498;7.540;2022-12-20T13:18:56;1.48;;;1.33;;
16189;SDS011;41754;51.498;7.540;2022-12-20T13:21:34;1.88;;;1.55;;
16189;SDS011;41754;51.498;7.540;2022-12-20T13:27:02;4.45;;;1.85;;
16189;SDS011;41754;51.498;7.540;2022-12-20T13:29:51;2.65;;;1.60;;
16189;SDS011;41754;51.498;7.540;2022-12-20T13:35:31;4.40;;;1.80;;
16189;SDS011;41754;51.498;7.540;2022-12-20T13:41:08;3.40;;;1.70;;
16189;SDS011;41754;51.498;7.540;2022-12-20T13:43:40;1.98;;;1.30;;
16189;SDS011;41754;51.498;7.540;2022-12-20T13:46:12;1.70;;;1.30;;
16189;SDS011;41754;51.498;7.540;2022-12-20T13:48:45;2.25;;;1.30;;
16189;SDS011;41754;51.498;7.540;2022-12-20T13:51:17;3.25;;;1.40;;
16189;SDS011;41754;51.498;7.540;2022-12-20T13:53:50;1.45;;;1.20;;
16189;SDS011;41754;51.498;7.540;2022-12-20T13:56:20;2.80;;;1.52;;
16189;SDS011;41754;51.498;7.540;2022-12-20T13:59:02;3.60;;;1.50;;
16189;SDS011;41754;51.498;7.540;2022-12-20T14:01:32;2.78;;;1.67;;
16189;SDS011;41754;51.498;7.540;2022-12-20T14:04:02;3.33;;;1.52;;
16189;SDS011;41754;51.498;7.540;2022-12-20T14:06:32;2.85;;;1.63;;
16189;SDS011;41754;51.498;7.540;2022-12-20T14:09:01;2.92;;;1.60;;
16189;SDS011;41754;51.498;7.540;2022-12-20T14:11:31;1.45;;;1.35;;
16189;SDS011;41754;51.498;7.540;2022-12-20T14:13:59;1.98;;;1.65;;
16189;SDS011;41754;51.498;7.540;2022-12-20T14:16:29;1.70;;;1.30;;
16189;SDS011;41754;51.498;7.540;2022-12-20T14:19:02;2.05;;;1.50;;
16189;SDS011;41754;51.498;7.540;2022-12-20T14:21:30;1.88;;;1.55;;
16189;SDS011;41754;51.498;7.540;2022-12-20T14:24:01;4.18;;;1.50;;
16189;SDS011;41754;51.498;7.540;2022-12-20T14:26:31;4.30;;;1.65;;
16189;SDS011;41754;51.498;7.540;2022-12-20T14:29:03;2.10;;;1.60;;
16189;SDS011;41754;51.498;7.540;2022-12-20T14:31:37;2.75;;;1.45;;
16189;SDS011;41754;51.498;7.540;2022-12-20T14:34:12;2.50;;;1.67;;
16189;SDS011;41754;51.498;7.540;2022-12-20T14:36:44;3.00;;;1.75;;
16189;SDS011;41754;51.498;7.540;2022-12-20T14:39:22;2.10;;;1.40;;
16189;SDS011;41754;51.498;7.540;2022-12-20T14:41:54;1.70;;;1.50;;
16189;SDS011;41754;51.498;7.540;2022-12-20T14:44:23;3.28;;;1.90;;
16189;SDS011;41754;51.498;7.540;2022-12-20T14:46:53;2.08;;;1.60;;
16189;SDS011;41754;51.498;7.540;2022-12-20T14:49:24;1.60;;;1.42;;
16189;SDS011;41754;51.498;7.540;2022-12-20T14:52:03;2.40;;;1.70;;
16189;SDS011;41754;51.498;7.540;2022-12-20T14:54:33;2.10;;;1.73;;
16189;SDS011;41754;51.498;7.540;2022-12-20T14:57:22;4.05;;;1.75;;
16189;SDS011;41754;51.498;7.540;2022-12-20T14:59:58;3.90;;;1.73;;
16189;SDS011;41754;51.498;7.540;2022-12-20T15:02:35;3.13;;;1.50;;
16189;SDS011;41754;51.498;7.540;2022-12-20T15:05:08;2.88;;;1.92;;
16189;SDS011;41754;51.498;7.540;2022-12-20T15:08:14;3.90;;;1.98;;
16189;SDS011;41754;51.498;7.540;2022-12-20T15:10:48;2.70;;;2.00;;
16189;SDS011;41754;51.498;7.540;2022-12-20T15:13:21;2.20;;;1.90;;
16189;SDS011;41754;51.498;7.540;2022-12-20T15:15:50;2.05;;;1.70;;
16189;SDS011;41754;51.498;7.540;2022-12-20T15:18:18;5.88;;;2.30;;
16189;SDS011;41754;51.498;7.540;2022-12-20T15:20:48;4.57;;;2.30;;
16189;SDS011;41754;51.498;7.540;2022-12-20T15:23:23;3.03;;;1.70;;
16189;SDS011;41754;51.498;7.540;2022-12-20T15:25:51;4.55;;;1.98;;
16189;SDS011;41754;51.498;7.540;2022-12-20T15:28:20;3.20;;;1.75;;
16189;SDS011;41754;51.498;7.540;2022-12-20T15:30:49;3.70;;;2.58;;
16189;SDS011;41754;51.498;7.540;2022-12-20T15:33:19;6.15;;;3.63;;
16189;SDS011;41754;51.498;7.540;2022-12-20T15:35:49;4.07;;;1.90;;
16189;SDS011;41754;51.498;7.540;2022-12-20T15:38:18;4.07;;;2.10;;
16189;SDS011;41754;51.498;7.540;2022-12-20T15:41:09;5.63;;;2.40;;
16189;SDS011;41754;51.498;7.540;2022-12-20T15:43:40;3.88;;;2.65;;